Time;durP1;ratioP1;P1;durP2;ratioP2;P2;SDS_P1;SDS_P2;PMS_P1;PMS_P2;Temp;Humidity;BMP_temperature;BMP_pressure;BME280_temperature;BME280_humidity;BME280_pressure;Samples;Min_cycle;Max_cycle;Signal;HPM_P1;HPM_P2
2021/11/09 00:02:10;;;;;;;5.07;2.93;;;3.50;99.90;3.10;97536.00;;;;5047603;28;20952;-88
2021/11/09 00:05:01;;;;;;;4.97;3.30;;;3.50;99.90;3.20;97533.00;;;;5046324;28;20444;-88
2021/11/09 00:07:53;;;;;;;10.13;3.80;;;3.50;99.90;3.30;97541.00;;;;5046594;28;21006;-89
2021/11/09 00:10:43;;;;;;;5.17;3.90;;;3.50;99.90;3.30;97533.00;;;;5047078;28;20475;-89
2021/11/09 00:13:32;;;;;;;4.83;4.00;;;3.50;99.90;3.10;97548.00;;;;5051017;28;20434;-90
2021/11/09 00:16:21;;;;;;;5.67;3.03;;;3.50;99.90;3.00;97538.00;;;;5067363;28;20511;-89
2021/11/09 00:19:11;;;;;;;5.43;3.63;;;3.50;99.90;3.00;97541.00;;;;5066286;28;21218;-88
2021/11/09 00:22:00;;;;;;;10.13;3.43;;;3.50;99.90;3.30;97533.00;;;;5061379;28;20450;-89
2021/11/09 00:24:53;;;;;;;6.40;3.00;;;3.50;99.90;3.30;97541.00;;;;5051429;28;20443;-89
2021/11/09 00:27:42;;;;;;;5.93;3.70;;;3.50;99.90;3.20;97547.00;;;;5047525;28;20427;-89
2021/11/09 00:30:31;;;;;;;5.30;3.80;;;3.50;99.90;3.30;97537.00;;;;5053746;28;20418;-89
2021/11/09 00:33:20;;;;;;;4.40;3.43;;;3.50;99.90;3.10;97536.00;;;;5067681;28;20435;-88
2021/11/09 00:36:11;;;;;;;4.43;3.30;;;3.50;99.90;3.10;97533.00;;;;5066844;28;20422;-89
2021/11/09 00:39:00;;;;;;;5.20;3.10;;;3.50;99.90;3.10;97542.00;;;;5067245;28;20561;-89
2021/11/09 00:41:49;;;;;;;6.97;3.90;;;3.50;99.90;3.20;97553.00;;;;5046960;28;20439;-89
2021/11/09 00:44:38;;;;;;;5.10;2.93;;;3.50;99.90;3.20;97547.00;;;;5046830;28;20462;-88
2021/11/09 00:47:27;;;;;;;6.40;3.70;;;3.40;99.90;3.00;97553.00;;;;5047872;28;20817;-88
2021/11/09 00:50:20;;;;;;;4.47;3.70;;;3.40;99.90;2.80;97538.00;;;;5055878;28;20430;-87
2021/11/09 00:53:12;;;;;;;7.33;3.23;;;3.40;99.90;2.80;97552.00;;;;5066692;28;20431;-87
2021/11/09 00:56:01;;;;;;;8.70;3.13;;;3.30;99.90;2.80;97553.00;;;;5064679;28;20468;-88
2021/11/09 00:58:50;;;;;;;5.33;3.53;;;3.20;99.90;2.80;97556.00;;;;5067708;28;20411;-87
2021/11/09 01:01:39;;;;;;;4.70;3.00;;;3.20;99.90;2.80;97560.00;;;;5067212;28;20438;-88
2021/11/09 01:04:29;;;;;;;4.10;2.83;;;3.20;99.90;2.90;97564.00;;;;5067266;28;20482;-89
2021/11/09 01:07:18;;;;;;;3.73;3.07;;;3.10;99.90;2.80;97555.00;;;;5066849;28;20462;-88
2021/11/09 01:10:10;;;;;;;4.80;2.33;;;3.10;99.90;2.90;97564.00;;;;5067488;28;20449;-87
2021/11/09 01:13:00;;;;;;;6.40;3.03;;;3.10;99.90;2.80;97561.00;;;;5066203;28;20807;-88
2021/11/09 01:15:52;;;;;;;3.87;2.60;;;3.20;99.90;2.80;97552.00;;;;5053652;28;20752;-88
2021/11/09 01:18:45;;;;;;;6.07;3.43;;;3.10;99.90;2.90;97567.00;;;;5069500;28;20465;-88
2021/11/09 01:21:35;;;;;;;4.07;3.30;;;3.20;99.90;2.90;97566.00;;;;5057057;28;20435;-88
2021/11/09 01:24:24;;;;;;;3.70;2.60;;;3.20;99.90;2.80;97570.00;;;;5051848;28;20814;-88
2021/11/09 01:27:14;;;;;;;5.77;4.13;;;3.10;99.90;2.80;97568.00;;;;5058087;28;20467;-88
2021/11/09 01:30:05;;;;;;;3.33;2.90;;;3.10;99.90;2.70;97570.00;;;;5070346;28;20481;-86
2021/11/09 01:32:55;;;;;;;7.07;3.53;;;3.10;99.90;2.40;97577.00;;;;5070237;28;20468;-86
2021/11/09 01:35:44;;;;;;;7.30;3.43;;;3.10;99.90;2.50;97575.00;;;;5068806;28;20499;-85
2021/11/09 01:38:34;;;;;;;8.87;3.17;;;3.00;99.90;2.50;97575.00;;;;5069013;28;20442;-87
2021/11/09 01:41:23;;;;;;;6.60;3.00;;;2.90;99.90;2.50;97578.00;;;;5070538;28;20858;-87
2021/11/09 01:44:14;;;;;;;4.10;2.80;;;2.90;99.90;2.50;97588.00;;;;5069488;28;20450;-87
2021/11/09 01:47:03;;;;;;;4.83;3.40;;;2.90;99.90;2.40;97581.00;;;;5069040;28;20430;-86
2021/11/09 01:49:52;;;;;;;5.20;2.97;;;2.80;99.90;2.20;97577.00;;;;5069913;28;20508;-86
2021/11/09 01:52:41;;;;;;;5.40;3.53;;;2.80;99.90;2.20;97581.00;;;;5068824;28;20434;-88
2021/11/09 01:55:32;;;;;;;4.37;3.07;;;2.70;99.90;2.20;97579.00;;;;5054400;28;20455;-89
2021/11/09 01:58:22;;;;;;;4.23;3.17;;;2.60;99.90;2.10;97577.00;;;;5049815;28;20439;-87
2021/11/09 02:01:18;;;;;;;4.63;3.27;;;2.60;99.90;1.90;97585.00;;;;5050620;28;20471;-87
2021/11/09 02:04:09;;;;;;;6.53;3.73;;;2.60;99.90;1.90;97592.00;;;;5050099;28;20626;-87
2021/11/09 02:06:58;;;;;;;5.03;3.33;;;2.50;99.90;1.90;97591.00;;;;5050480;28;20424;-88
2021/11/09 02:09:47;;;;;;;6.97;3.70;;;2.50;99.90;1.90;97601.00;;;;5048833;28;20968;-88
2021/11/09 02:12:36;;;;;;;5.40;3.43;;;2.50;99.90;2.00;97600.00;;;;5049289;28;20436;-88
2021/11/09 02:15:26;;;;;;;5.07;3.33;;;2.50;99.90;1.90;97604.00;;;;5065489;28;20734;-87
2021/11/09 02:18:17;;;;;;;5.17;3.60;;;2.40;99.90;2.00;97601.00;;;;5068533;28;20487;-88
2021/11/09 02:21:11;;;;;;;4.77;3.83;;;1.90;99.90;1.90;97603.00;;;;5068436;28;20544;-87
2021/11/09 02:24:01;;;;;;;2.97;2.63;;;2.40;99.90;1.80;97597.00;;;;5068807;28;21538;-88
2021/11/09 02:26:50;;;;;;;4.83;3.00;;;2.40;99.90;1.70;97598.00;;;;5048919;28;20435;-88
2021/11/09 02:29:41;;;;;;;4.53;3.23;;;2.30;99.90;1.80;97605.00;;;;5057513;28;20459;-89
2021/11/09 02:32:30;;;;;;;4.33;2.50;;;2.30;99.90;1.90;97597.00;;;;5068810;28;20508;-87
2021/11/09 02:35:22;;;;;;;7.07;3.40;;;2.30;99.90;1.80;97601.00;;;;5068601;28;21057;-88
2021/11/09 02:38:13;;;;;;;5.50;4.10;;;2.30;99.90;1.80;97604.00;;;;5069345;28;20437;-86
2021/11/09 02:41:03;;;;;;;6.17;3.40;;;2.30;99.90;1.80;97602.00;;;;5068000;28;20473;-87
2021/11/09 02:43:53;;;;;;;4.90;3.70;;;2.30;99.90;1.80;97603.00;;;;5068567;28;20545;-87
2021/11/09 02:46:49;;;;;;;11.03;3.67;;;2.30;99.90;1.80;97601.00;;;;5067364;28;20822;-88
2021/11/09 02:49:46;;;;;;;5.27;3.37;;;2.20;99.90;1.90;97587.00;;;;5068095;28;20427;-87
2021/11/09 02:52:44;;;;;;;6.13;3.03;;;2.20;99.90;1.80;97608.00;;;;5048425;28;20447;-88
2021/11/09 02:55:37;;;;;;;4.13;3.57;;;2.20;99.90;1.70;97623.00;;;;5046604;28;20454;-87
2021/11/09 02:58:32;;;;;;;3.87;3.20;;;2.20;99.90;1.60;97622.00;;;;5049021;28;20435;-85
2021/11/09 03:01:26;;;;;;;5.67;3.33;;;2.20;99.90;1.60;97627.00;;;;5048307;28;20475;-85
2021/11/09 03:04:23;;;;;;;5.27;3.30;;;2.10;99.90;1.60;97629.00;;;;5048011;28;20439;-86
2021/11/09 03:07:25;;;;;;;4.57;3.17;;;2.10;99.90;1.50;97627.00;;;;5056671;28;20430;-87
2021/11/09 03:10:25;;;;;;;6.13;3.30;;;2.00;99.90;1.40;97629.00;;;;5065865;28;20973;-87
2021/11/09 03:13:16;;;;;;;7.60;3.70;;;1.90;99.90;1.40;97632.00;;;;5067773;28;20855;-87
2021/11/09 03:16:08;;;;;;;4.37;3.30;;;2.00;99.90;1.40;97641.00;;;;5065990;28;20434;-87
2021/11/09 03:19:03;;;;;;;6.23;3.57;;;1.90;99.90;1.40;97642.00;;;;5068194;28;20957;-86
2021/11/09 03:40:36;;;;;;;6.93;3.40;;;1.70;99.90;1.00;97675.00;;;;5046643;28;20483;-87
2021/11/09 03:46:32;;;;;;;3.03;2.73;;;1.60;99.90;0.80;97661.00;;;;5047169;28;20960;-87
2021/11/09 03:49:24;;;;;;;3.37;2.50;;;1.50;99.90;1.00;97673.00;;;;5047950;28;20450;-86
2021/11/09 03:52:20;;;;;;;4.70;3.10;;;1.50;99.90;0.90;97682.00;;;;5054839;28;20414;-87
2021/11/09 03:55:12;;;;;;;7.97;3.40;;;1.40;99.90;0.70;97679.00;;;;5065522;28;20446;-88
2021/11/09 03:58:07;;;;;;;6.70;3.73;;;1.50;99.90;0.60;97681.00;;;;5068196;28;20431;-87
2021/11/09 04:00:59;;;;;;;4.40;3.53;;;1.30;99.90;0.60;97685.00;;;;5067439;28;20465;-86
2021/11/09 04:04:04;;;;;;;5.57;3.90;;;1.30;99.90;0.50;97698.00;;;;5068836;28;20458;-88
2021/11/09 04:07:03;;;;;;;4.17;3.77;;;1.20;99.90;0.20;97689.00;;;;5056437;28;20441;-88
2021/11/09 04:13:18;;;;;;;6.87;3.93;;;1.00;99.90;-0.30;97686.00;;;;5060193;28;20465;-88
2021/11/09 04:16:27;;;;;;;3.80;3.40;;;1.00;99.90;-0.30;97698.00;;;;5066768;28;20433;-86
2021/11/09 04:19:29;;;;;;;4.27;3.87;;;0.70;99.90;-0.40;97709.00;;;;5066661;28;20438;-88
2021/11/09 04:25:43;;;;;;;6.67;3.40;;;0.70;99.90;-0.50;97693.00;;;;5066529;28;20519;-88
2021/11/09 04:28:41;;;;;;;4.33;3.37;;;1.40;99.90;-0.60;97689.00;;;;5046852;28;20840;-87
2021/11/09 04:31:51;;;;;;;4.50;3.83;;;0.50;99.90;-0.80;97692.00;;;;5044010;28;20442;-87
2021/11/09 05:03:00;;;;;;;6.77;3.80;;;0.00;99.90;-1.40;97735.00;;;;5049647;28;20833;-87
2021/11/09 05:09:07;;;;;;;12.57;3.67;;;0.60;99.90;-1.60;97725.00;;;;5060041;28;20460;-85
2021/11/09 05:11:56;;;;;;;4.37;3.57;;;-0.10;99.90;-1.60;97727.00;;;;5070600;28;20422;-85
2021/11/09 05:14:44;;;;;;;4.43;3.57;;;0.10;99.90;-1.60;97737.00;;;;5068712;28;20454;-85
2021/11/09 05:17:33;;;;;;;7.07;4.17;;;-0.70;99.90;-1.70;97730.00;;;;5067924;28;20427;-86
2021/11/09 05:20:22;;;;;;;5.07;3.40;;;-0.70;99.90;-1.60;97747.00;;;;5049807;28;20435;-85
2021/11/09 05:23:13;;;;;;;6.43;3.83;;;-0.70;99.90;-1.60;97755.00;;;;5050392;28;20446;-85
2021/11/09 05:26:02;;;;;;;6.43;3.70;;;-0.80;99.90;-1.40;97767.00;;;;5060022;28;20438;-86
2021/11/09 05:28:51;;;;;;;4.20;3.80;;;-0.10;99.90;-1.40;97772.00;;;;5049558;28;20824;-86
2021/11/09 05:31:42;;;;;;;6.80;3.37;;;-0.70;99.90;-1.40;97781.00;;;;5049489;28;20426;-87
2021/11/09 05:34:31;;;;;;;4.10;2.97;;;-0.40;99.90;-1.40;97780.00;;;;5057558;28;20704;-87
2021/11/09 05:37:23;;;;;;;6.17;3.37;;;0.00;99.90;-1.50;97769.00;;;;5070242;28;20431;-87
2021/11/09 05:40:14;;;;;;;4.73;3.80;;;-0.70;99.90;-1.60;97771.00;;;;5068215;28;20442;-85
2021/11/09 05:43:04;;;;;;;7.07;3.90;;;-0.10;99.90;-1.50;97765.00;;;;5068807;28;20469;-86
2021/11/09 05:45:52;;;;;;;6.53;4.07;;;-0.60;99.90;-1.70;97772.00;;;;5062282;28;20465;-86
2021/11/09 05:48:41;;;;;;;5.33;3.83;;;-0.70;99.90;-1.70;97772.00;;;;5051083;28;20470;-86
2021/11/09 05:51:30;;;;;;;8.40;4.50;;;-0.70;99.90;-1.70;97789.00;;;;5047540;28;20729;-86
2021/11/09 05:54:19;;;;;;;7.63;4.93;;;-0.80;99.90;-1.70;97801.00;;;;5049876;28;20454;-87
2021/11/09 05:57:10;;;;;;;5.17;3.87;;;-0.60;99.90;-2.00;97791.00;;;;5057774;28;20423;-86
2021/11/09 05:59:59;;;;;;;8.67;4.77;;;-0.90;99.90;-1.90;97808.00;;;;5063046;28;20435;-86
2021/11/09 06:02:47;;;;;;;6.33;3.83;;;-0.30;99.90;-2.10;97803.00;;;;5049335;28;20475;-86
2021/11/09 06:05:36;;;;;;;4.60;3.87;;;-0.50;99.90;-2.00;97809.00;;;;5049515;28;20451;-86
2021/11/09 06:08:25;;;;;;;3.10;2.70;;;-0.80;99.90;-2.20;97816.00;;;;5050196;28;20810;-86
2021/11/09 06:11:15;;;;;;;10.80;4.43;;;-1.10;99.90;-2.10;97821.00;;;;5047890;28;20453;-87
2021/11/09 06:14:06;;;;;;;9.43;5.83;;;-0.60;99.90;-2.10;97812.00;;;;5051165;28;20443;-86
2021/11/09 06:16:55;;;;;;;7.03;5.57;;;-0.70;99.90;-1.90;97821.00;;;;5068504;28;20442;-86
2021/11/09 06:19:44;;;;;;;7.37;5.73;;;-1.10;99.90;-2.10;97812.00;;;;5069469;28;20434;-87
2021/11/09 06:22:33;;;;;;;12.50;7.03;;;-1.10;99.90;-1.80;97824.00;;;;5063392;28;20479;-87
2021/11/09 06:25:24;;;;;;;4.23;3.83;;;-1.10;99.90;-1.80;97848.00;;;;5061650;28;20449;-86
2021/11/09 06:28:16;;;;;;;5.57;4.93;;;-1.00;99.90;-1.80;97839.00;;;;5049882;28;20435;-87
2021/11/09 06:31:06;;;;;;;5.83;5.23;;;-1.00;99.90;-1.80;97837.00;;;;5049416;28;20415;-86
2021/11/09 06:33:55;;;;;;;4.87;3.70;;;-1.00;99.90;-2.00;97841.00;;;;5048327;28;20471;-86
2021/11/09 06:36:44;;;;;;;5.27;4.43;;;-0.40;99.90;-1.80;97858.00;;;;5048079;28;20428;-85
2021/11/09 06:39:33;;;;;;;7.53;4.67;;;-0.90;99.90;-1.60;97869.00;;;;5048421;28;20976;-86
2021/11/09 06:42:22;;;;;;;8.27;3.87;;;-0.90;99.90;-1.60;97868.00;;;;5047848;28;20467;-86
2021/11/09 06:45:11;;;;;;;5.23;4.10;;;-0.80;99.90;-1.70;97867.00;;;;5047499;28;20490;-86
2021/11/09 06:48:02;;;;;;;4.93;3.73;;;-0.80;99.90;-1.60;97874.00;;;;5049851;28;20428;-85
2021/11/09 06:50:51;;;;;;;5.10;3.83;;;-0.80;99.90;-1.70;97873.00;;;;5048841;28;20419;-85
2021/11/09 06:53:40;;;;;;;5.50;3.27;;;-0.80;99.90;-1.60;97875.00;;;;5048863;28;20428;-86
2021/11/09 06:56:29;;;;;;;6.33;3.70;;;-0.70;99.90;-1.50;97884.00;;;;5062289;28;20960;-86
2021/11/09 06:59:19;;;;;;;4.53;3.10;;;-0.70;99.90;-1.50;97886.00;;;;5055014;28;20952;-85
2021/11/09 07:02:09;;;;;;;4.80;4.13;;;-0.40;99.90;-1.40;97881.00;;;;5048007;28;20459;-86
2021/11/09 07:04:59;;;;;;;6.93;3.27;;;-0.20;99.90;-1.20;97898.00;;;;5048860;28;20827;-86
2021/11/09 07:07:48;;;;;;;6.80;3.63;;;-0.60;99.90;-1.00;97904.00;;;;5047682;28;20496;-85
2021/11/09 07:10:38;;;;;;;3.57;3.27;;;-0.10;99.90;-1.30;97904.00;;;;5047965;28;20471;-86
2021/11/09 07:13:27;;;;;;;3.97;3.57;;;-0.20;99.90;-1.20;97911.00;;;;5047307;28;20430;-86
2021/11/09 07:16:16;;;;;;;5.13;4.10;;;-0.40;99.90;-1.00;97925.00;;;;5065914;28;20430;-86
2021/11/09 07:19:07;;;;;;;6.10;3.50;;;-0.10;99.90;-1.00;97935.00;;;;5068135;28;20427;-85
2021/11/09 07:21:57;;;;;;;11.13;3.90;;;-0.30;99.90;-1.00;97935.00;;;;5068631;28;20423;-85
2021/11/09 07:24:47;;;;;;;5.17;3.37;;;-0.20;99.90;-0.90;97941.00;;;;5067063;28;20473;-86
2021/11/09 07:27:36;;;;;;;5.23;2.97;;;0.00;99.90;-0.90;97943.00;;;;5056778;28;20443;-85
2021/11/09 07:30:28;;;;;;;4.60;2.77;;;-0.10;99.90;-0.80;97946.00;;;;5062911;28;20838;-85
2021/11/09 07:33:17;;;;;;;4.47;3.43;;;0.00;99.90;-0.70;97947.00;;;;5055048;28;20438;-86
2021/11/09 07:36:06;;;;;;;7.70;3.63;;;0.10;99.90;-0.40;97963.00;;;;5046486;28;20442;-85
2021/11/09 07:38:58;;;;;;;4.20;3.67;;;0.20;99.90;-0.50;97959.00;;;;5047883;28;20431;-85
2021/11/09 07:41:48;;;;;;;9.30;4.40;;;0.10;99.90;-0.40;97956.00;;;;5047528;28;20451;-85
2021/11/09 07:44:37;;;;;;;4.67;3.70;;;0.50;99.90;-0.10;97960.00;;;;5046827;28;20459;-86
2021/11/09 07:47:26;;;;;;;6.83;4.63;;;0.40;99.90;-0.30;97958.00;;;;5055256;28;20468;-85
2021/11/09 07:50:16;;;;;;;6.00;4.13;;;0.40;99.90;-0.10;97963.00;;;;5066303;28;20423;-86
2021/11/09 07:53:08;;;;;;;3.60;3.07;;;0.70;99.90;-0.40;97950.00;;;;5067972;28;20434;-85
2021/11/09 07:56:10;;;;;;;7.23;4.33;;;0.50;99.90;0.00;97957.00;;;;5066814;28;20441;-84
2021/11/09 07:59:12;;;;;;;3.90;2.60;;;0.70;99.90;-0.10;97964.00;;;;5067044;28;20430;-86
2021/11/09 08:02:03;;;;;;;6.00;4.27;;;0.70;99.90;0.10;97957.00;;;;5054886;28;20406;-86
2021/11/09 08:04:56;;;;;;;18.30;7.50;;;0.80;99.90;0.10;97957.00;;;;5047824;28;20443;-86
2021/11/09 08:07:52;;;;;;;8.27;4.90;;;0.80;99.90;0.50;97968.00;;;;5046528;28;20431;-86
2021/11/09 08:10:42;;;;;;;9.27;4.73;;;0.90;99.90;1.00;97967.00;;;;5058308;28;20439;-86
2021/11/09 08:13:32;;;;;;;7.50;4.03;;;1.10;99.90;0.70;97971.00;;;;5060071;28;20433;-86
2021/11/09 08:16:21;;;;;;;6.07;3.53;;;1.30;99.90;1.00;97971.00;;;;5054622;28;20421;-86
2021/11/09 08:19:11;;;;;;;6.20;4.60;;;1.40;99.90;1.10;97972.00;;;;5066386;28;20427;-88
2021/11/09 08:22:00;;;;;;;5.17;3.90;;;1.60;99.90;1.40;97973.00;;;;5065616;28;20430;-86
2021/11/09 08:24:49;;;;;;;8.47;5.43;;;1.70;99.90;1.50;97985.00;;;;5054467;28;20453;-85
2021/11/09 08:27:38;;;;;;;10.73;5.20;;;1.90;99.90;2.00;97991.00;;;;5057186;28;20442;-85
2021/11/09 08:30:30;;;;;;;9.00;5.13;;;2.10;99.90;2.60;98000.00;;;;5064378;28;20414;-85
2021/11/09 08:33:20;;;;;;;10.23;4.60;;;2.30;99.90;2.80;98001.00;;;;5051901;28;20836;-85
2021/11/09 08:36:14;;;;;;;12.50;4.60;;;2.70;99.90;2.50;97996.00;;;;5050397;28;20427;-85
2021/11/09 08:39:07;;;;;;;6.73;3.60;;;2.90;99.90;2.10;97990.00;;;;5051939;28;20935;-85
2021/11/09 08:42:10;;;;;;;5.07;3.70;;;3.00;99.90;1.90;97993.00;;;;5051169;28;20428;-86
2021/11/09 08:45:06;;;;;;;5.63;3.87;;;2.80;99.90;2.30;98000.00;;;;5050526;28;20457;-86
2021/11/09 08:48:04;;;;;;;6.63;4.23;;;2.80;99.90;2.30;97997.00;;;;5051226;28;20462;-85
2021/11/09 08:50:55;;;;;;;8.13;4.47;;;2.90;99.90;2.90;97994.00;;;;5048905;28;20423;-86
2021/11/09 08:53:50;;;;;;;7.17;4.30;;;3.00;99.90;3.60;98005.00;;;;5052223;28;20460;-84
2021/11/09 09:06:04;;;;;;;4.27;3.47;;;4.40;99.90;5.30;98017.00;;;;5068936;28;20442;-85
2021/11/09 09:08:53;;;;;;;4.27;3.70;;;4.80;99.90;5.40;98027.00;;;;5071440;28;20210;-86
2021/11/09 09:11:42;;;;;;;6.80;4.27;;;5.10;99.90;5.60;98031.00;;;;5070999;28;20204;-83
2021/11/09 09:14:31;;;;;;;9.10;4.30;;;5.30;99.90;5.90;98035.00;;;;5070049;28;20231;-85
2021/11/09 09:17:21;;;;;;;6.93;3.73;;;5.60;99.90;6.00;98029.00;;;;5069864;28;20211;-84
2021/11/09 09:20:18;;;;;;;7.13;3.63;;;5.80;99.90;6.10;98033.00;;;;5069943;28;20195;-84
2021/11/09 09:23:10;;;;;;;7.57;4.27;;;6.00;99.90;6.60;98043.00;;;;5070929;28;20235;-85
2021/11/09 09:26:16;;;;;;;5.10;3.93;;;6.20;99.90;6.70;98040.00;;;;5061979;28;20224;-84
2021/11/09 09:54:06;;;;;;;4.60;3.50;;;7.90;99.90;8.70;98055.00;;;;5052916;28;20240;-86
2021/11/09 09:56:57;;;;;;;7.73;3.50;;;8.20;99.90;8.90;98051.00;;;;5050028;28;20209;-85
2021/11/09 09:59:48;;;;;;;5.43;3.57;;;8.40;99.90;9.20;98046.00;;;;5049925;28;20204;-85
2021/11/09 10:02:49;;;;;;;9.10;3.67;;;8.60;99.90;9.40;98046.00;;;;5057926;28;20196;-85
2021/11/09 10:05:42;;;;;;;8.20;3.23;;;8.90;99.90;9.80;98047.00;;;;5068276;28;20219;-85
2021/11/09 10:08:45;;;;;;;8.00;3.87;;;9.10;99.90;10.00;98047.00;;;;5069696;28;20211;-85
2021/11/09 10:11:37;;;;;;;7.33;3.50;;;9.40;99.90;10.20;98055.00;;;;5069142;28;20207;-85
2021/11/09 10:14:35;;;;;;;5.17;3.63;;;9.70;99.90;10.80;98067.00;;;;5065415;28;20220;-85
2021/11/09 10:17:28;;;;;;;4.20;2.90;;;10.20;99.90;11.30;98060.00;;;;5064613;28;20206;-86
2021/11/09 10:20:21;;;;;;;7.63;3.03;;;10.70;99.90;11.90;98060.00;;;;5069102;28;20440;-85
2021/11/09 10:23:19;;;;;;;5.47;2.77;;;11.20;99.90;12.30;98054.00;;;;5068945;28;20207;-86
2021/11/09 10:26:15;;;;;;;6.03;2.73;;;11.70;99.90;12.80;98063.00;;;;5062398;28;20231;-85
2021/11/09 10:29:08;;;;;;;2.73;1.93;;;12.20;99.90;13.40;98062.00;;;;5061878;28;20215;-85
2021/11/09 10:31:57;;;;;;;5.67;2.90;;;12.70;99.90;13.20;98051.00;;;;5064702;28;20210;-86
2021/11/09 10:34:46;;;;;;;4.43;2.10;;;13.10;96.00;13.70;98065.00;;;;5047506;28;20239;-86
2021/11/09 10:37:37;;;;;;;6.53;2.60;;;13.40;93.80;13.70;98057.00;;;;5055881;28;20219;-86
2021/11/09 10:40:37;;;;;;;6.30;2.70;;;13.70;91.30;13.00;98052.00;;;;5068540;28;20207;-86
2021/11/09 10:43:28;;;;;;;9.00;3.47;;;14.00;86.60;13.50;98063.00;;;;5067080;28;20294;-85
2021/11/09 10:46:26;;;;;;;3.97;2.60;;;14.10;83.70;14.00;98054.00;;;;5062588;28;20222;-85
2021/11/09 10:49:15;;;;;;;5.20;2.60;;;14.30;82.00;14.90;98054.00;;;;5056241;28;20227;-85
2021/11/09 10:52:19;;;;;;;3.10;1.80;;;14.60;81.30;14.30;98059.00;;;;5055316;28;20580;-86
2021/11/09 10:55:14;;;;;;;4.80;1.83;;;14.90;75.70;14.80;98051.00;;;;5067498;28;20212;-86
2021/11/09 11:04:14;;;;;;;3.10;1.37;;;15.30;71.10;16.00;98069.00;;;;5068048;28;20232;-83
2021/11/09 11:07:06;;;;;;;2.70;1.70;;;15.60;71.90;16.20;98063.00;;;;5067990;28;20204;-85
2021/11/09 11:10:03;;;;;;;4.10;1.97;;;16.00;69.40;16.90;98062.00;;;;5067074;28;20212;-86
2021/11/09 11:12:52;;;;;;;3.27;1.93;;;16.50;69.40;15.50;98065.00;;;;5067781;28;20211;-87
2021/11/09 11:16:05;;;;;;;2.33;1.60;;;16.70;63.80;15.80;98061.00;;;;5067810;28;20600;-85
2021/11/09 11:18:56;;;;;;;2.63;1.70;;;16.80;61.60;16.40;98071.00;;;;5047981;28;20210;-85
2021/11/09 11:21:45;;;;;;;3.63;1.77;;;16.70;63.20;16.40;98066.00;;;;5052501;28;20213;-87
2021/11/09 11:24:34;;;;;;;3.00;1.50;;;16.80;61.80;17.30;98074.00;;;;5051072;28;20239;-86
2021/11/09 11:27:26;;;;;;;2.40;1.70;;;17.00;63.70;16.90;98102.00;;;;5058416;28;20229;-87
2021/11/09 11:30:15;;;;;;;3.43;1.97;;;17.20;59.30;15.60;98081.00;;;;5061273;28;20203;-82
2021/11/09 11:33:05;;;;;;;9.63;2.30;;;16.80;59.40;15.00;98099.00;;;;5049156;28;20337;-82
2021/11/09 11:35:56;;;;;;;4.20;1.97;;;16.30;59.80;14.60;98087.00;;;;5059582;28;20204;-83
2021/11/09 11:38:47;;;;;;;3.87;1.70;;;15.80;60.40;12.90;98087.00;;;;5053993;28;20201;-83
2021/11/09 11:41:41;;;;;;;1.93;1.23;;;15.20;61.30;13.40;98084.00;;;;5066282;28;20216;-83
2021/11/09 11:44:31;;;;;;;4.10;3.07;;;14.50;64.20;13.00;98088.00;;;;5047591;28;20415;-83
2021/11/09 11:47:22;;;;;;;3.87;1.53;;;14.10;65.30;11.60;98075.00;;;;5055059;28;20321;-83
2021/11/09 11:50:12;;;;;;;4.00;2.40;;;13.50;62.70;10.70;98078.00;;;;5068321;28;20266;-83
2021/11/09 11:53:03;;;;;;;2.80;1.70;;;12.70;65.20;10.90;98078.00;;;;5064987;28;20208;-85
2021/11/09 11:55:51;;;;;;;3.23;2.10;;;12.30;65.30;11.20;98085.00;;;;5067053;28;20219;-85
2021/11/09 11:58:40;;;;;;;2.93;2.30;;;11.90;66.30;11.00;98091.00;;;;5067038;28;20207;-85
2021/11/09 12:01:39;;;;;;;4.30;2.40;;;11.70;67.60;10.10;98088.00;;;;5067515;28;20204;-87
2021/11/09 12:04:52;;;;;;;2.73;2.00;;;11.20;68.30;10.10;98089.00;;;;5060570;28;20627;-87
2021/11/09 12:07:57;;;;;;;3.77;1.77;;;10.80;70.00;10.00;98079.00;;;;5055858;28;20206;-85
2021/11/09 12:10:52;;;;;;;4.27;1.93;;;10.50;70.50;10.10;98082.00;;;;5047772;28;20566;-85
2021/11/09 12:13:56;;;;;;;8.87;2.30;;;10.50;71.30;10.30;98085.00;;;;5048130;28;20204;-86
2021/11/09 12:16:53;;;;;;;3.70;1.90;;;10.50;71.60;11.10;98088.00;;;;5056633;28;20199;-85
2021/11/09 12:19:51;;;;;;;3.20;2.13;;;10.80;72.10;11.50;98101.00;;;;5066444;28;20210;-86
2021/11/09 12:22:46;;;;;;;2.50;1.77;;;11.00;72.70;12.50;98105.00;;;;5056666;28;20220;-86
2021/11/09 12:25:39;;;;;;;2.70;1.40;;;11.50;74.20;12.50;98117.00;;;;5058282;28;20234;-85
2021/11/09 12:28:36;;;;;;;3.57;1.57;;;11.80;73.00;13.00;98133.00;;;;5064097;28;20200;-85
2021/11/09 12:31:24;;;;;;;3.73;1.50;;;12.30;72.60;12.50;98130.00;;;;5046294;28;20215;-82
2021/11/09 12:34:13;;;;;;;1.67;1.10;;;12.40;71.80;12.30;98131.00;;;;5046165;28;20223;-84
2021/11/09 12:37:20;;;;;;;5.67;1.73;;;12.40;71.80;11.50;98125.00;;;;5047866;28;20212;-85
2021/11/09 12:40:40;;;;;;;2.67;1.53;;;12.10;70.50;11.00;98123.00;;;;5047259;28;20200;-86
2021/11/09 12:43:46;;;;;;;3.83;1.67;;;11.70;70.90;11.20;98112.00;;;;4985925;28;20198;-84
2021/11/09 12:46:39;;;;;;;4.43;1.70;;;11.40;72.70;11.10;98113.00;;;;5045194;28;20235;-86
2021/11/09 12:49:36;;;;;;;3.33;1.60;;;11.40;74.10;10.80;98094.00;;;;5046880;28;20209;-86
2021/11/09 12:52:25;;;;;;;4.13;2.00;;;11.30;72.90;12.30;98061.00;;;;5048095;28;20200;-86
2021/11/09 12:55:15;;;;;;;3.63;1.40;;;11.60;73.10;13.00;98063.00;;;;5045768;28;20221;-85
2021/11/09 12:58:20;;;;;;;16.13;2.10;;;12.10;71.50;13.90;98076.00;;;;5061780;28;20200;-88
2021/11/09 13:01:22;;;;;;;4.80;1.67;;;13.20;70.60;14.60;98113.00;;;;5054337;28;20212;-87
2021/11/09 13:04:24;;;;;;;4.77;1.80;;;13.90;67.50;13.00;98070.00;;;;5057319;28;20231;-88
2021/11/09 13:07:20;;;;;;;4.17;1.30;;;14.00;65.30;15.00;98084.00;;;;5059893;28;20215;-88
2021/11/09 13:10:16;;;;;;;1.43;1.10;;;14.40;66.20;16.40;98096.00;;;;5052541;28;20216;-87
2021/11/09 13:13:05;;;;;;;2.87;1.47;;;15.00;66.20;17.40;98097.00;;;;5046958;28;20209;-87
2021/11/09 13:15:57;;;;;;;3.17;1.80;;;16.00;64.90;18.20;98104.00;;;;5065839;28;20728;-88
2021/11/09 13:18:50;;;;;;;2.40;1.73;;;16.90;62.60;18.20;98102.00;;;;5070336;28;20216;-88
2021/11/09 13:21:41;;;;;;;1.30;1.20;;;17.70;59.10;17.70;98094.00;;;;5069794;28;20207;-88
2021/11/09 13:24:29;;;;;;;2.73;1.10;;;18.10;55.60;18.30;98101.00;;;;5069186;28;20751;-88
2021/11/09 13:27:18;;;;;;;1.20;1.07;;;18.10;56.40;18.40;98128.00;;;;5054800;28;20232;-88
2021/11/09 13:30:16;;;;;;;5.30;1.77;;;18.20;56.70;18.20;98109.00;;;;5049865;28;20200;-88
2021/11/09 13:33:05;;;;;;;1.87;1.10;;;18.20;57.00;15.20;98099.00;;;;5049286;28;20593;-90
2021/11/09 13:35:58;;;;;;;2.90;1.40;;;18.10;54.10;14.50;98099.00;;;;5062569;28;20240;-89
2021/11/09 13:38:47;;;;;;;2.20;1.33;;;17.20;54.80;15.10;98103.00;;;;5050080;28;20204;-87
2021/11/09 13:41:37;;;;;;;3.47;1.23;;;16.80;55.70;14.70;98131.00;;;;5050671;28;20266;-86
2021/11/09 13:44:33;;;;;;;1.67;1.53;;;16.10;56.70;13.80;98150.00;;;;5058070;28;20232;-87
2021/11/09 13:47:32;;;;;;;2.37;1.87;;;15.50;58.40;11.60;98131.00;;;;5063034;28;20705;-87
2021/11/09 13:50:21;;;;;;;3.83;1.70;;;14.30;58.60;11.10;98143.00;;;;5049535;28;20212;-88
2021/11/09 13:53:12;;;;;;;2.00;1.60;;;13.10;61.80;10.20;98131.00;;;;5049954;28;20204;-86
2021/11/09 13:56:05;;;;;;;3.80;1.30;;;12.20;63.30;10.40;98126.00;;;;5048521;28;20229;-87
2021/11/09 13:58:58;;;;;;;3.67;1.80;;;11.60;65.50;10.10;98129.00;;;;5065828;28;20216;-87
2021/11/09 14:01:54;;;;;;;4.00;1.53;;;11.10;67.20;10.30;98128.00;;;;5069231;28;20204;-87
2021/11/09 14:08:05;;;;;;;2.87;1.63;;;10.70;69.70;10.40;98141.00;;;;5069286;28;20204;-87
2021/11/09 14:11:17;;;;;;;2.87;1.53;;;10.60;70.90;10.30;98141.00;;;;5057330;28;20299;-86
2021/11/09 14:14:28;;;;;;;2.13;1.37;;;10.50;73.70;10.10;98144.00;;;;5054114;28;20225;-87
2021/11/09 14:17:32;;;;;;;1.67;1.20;;;10.40;76.60;10.10;98135.00;;;;5068959;28;20219;-87
2021/11/09 14:20:24;;;;;;;1.43;1.33;;;10.30;78.50;10.00;98121.00;;;;5051090;28;20232;-86
2021/11/09 14:23:13;;;;;;;2.50;1.60;;;10.30;79.30;10.00;98126.00;;;;5068350;28;20203;-87
2021/11/09 14:26:21;;;;;;;2.93;1.37;;;10.20;79.60;9.80;98129.00;;;;5062188;28;20221;-87
2021/11/09 14:29:20;;;;;;;2.37;2.17;;;10.10;80.10;9.40;98128.00;;;;5054635;28;20667;-86
2021/11/09 14:32:19;;;;;;;3.17;2.17;;;10.00;81.40;8.70;98125.00;;;;5075023;28;20207;-86
2021/11/09 14:35:15;;;;;;;3.33;2.23;;;9.70;84.20;8.50;98116.00;;;;5070404;28;20215;-86
2021/11/09 14:38:12;;;;;;;4.70;2.58;;;9.30;86.00;8.80;98124.00;;;;5048003;28;20392;-86
2021/11/09 14:41:13;;;;;;;6.03;3.37;;;9.10;86.90;8.50;98127.00;;;;5075688;28;20200;-87